Time;durP1;ratioP1;P1;durP2;ratioP2;P2;SDS_P1;SDS_P2;PMS_P1;PMS_P2;Temp;Humidity;BMP_temperature;BMP_pressure;BME280_temperature;BME280_humidity;BME280_pressure;Samples;Min_cycle;Max_cycle;Signal;HPM_P1;HPM_P2
2023/04/27 00:00:22;;;;;;;7.40;3.80;;;3.30;99.90;;;;;;4977983;28;20049;-63
2023/04/27 00:02:48;;;;;;;9.18;3.63;;;3.30;99.90;;;;;;4983962;28;20481;-63
2023/04/27 00:05:13;;;;;;;6.95;3.65;;;3.30;99.90;;;;;;4960621;28;20394;-65
2023/04/27 00:07:39;;;;;;;8.65;3.92;;;3.30;99.90;;;;;;4966196;28;20042;-63
2023/04/27 00:10:05;;;;;;;7.70;4.18;;;4.00;99.90;;;;;;4981500;28;20374;-62
2023/04/27 00:12:31;;;;;;;8.30;3.95;;;3.30;99.90;;;;;;4983452;28;20096;-63
2023/04/27 00:14:57;;;;;;;5.90;3.92;;;3.00;99.90;;;;;;4989697;28;20485;-63
2023/04/27 00:17:22;;;;;;;9.05;4.30;;;3.20;99.90;;;;;;4983623;28;20039;-63
2023/04/27 00:19:48;;;;;;;9.50;4.32;;;3.20;99.90;;;;;;4960846;28;20043;-65
2023/04/27 00:22:13;;;;;;;10.20;4.20;;;3.20;99.90;;;;;;4963531;28;20042;-63
2023/04/27 00:24:40;;;;;;;9.90;4.38;;;3.20;99.90;;;;;;4982447;28;20046;-63
2023/04/27 00:27:06;;;;;;;6.53;3.97;;;3.10;99.90;;;;;;4963897;28;20042;-63
2023/04/27 00:29:31;;;;;;;9.90;4.22;;;3.10;99.90;;;;;;4964837;28;20046;-63
2023/04/27 00:31:57;;;;;;;9.85;4.38;;;3.10;99.90;;;;;;4967003;28;20396;-63
2023/04/27 00:34:23;;;;;;;9.25;4.95;;;3.10;99.90;;;;;;4985997;28;20050;-63
2023/04/27 00:36:48;;;;;;;9.85;5.03;;;3.00;99.90;;;;;;4970332;28;20046;-65
2023/04/27 00:39:14;;;;;;;9.18;4.90;;;3.00;99.90;;;;;;4988636;28;20047;-63
2023/04/27 00:41:39;;;;;;;9.38;4.63;;;3.00;99.90;;;;;;4967366;28;20038;-63
2023/04/27 00:44:05;;;;;;;11.30;4.47;;;3.00;99.90;;;;;;4992061;28;20039;-63
2023/04/27 00:46:32;;;;;;;8.20;4.63;;;3.00;99.90;;;;;;4991267;28;20039;-63
2023/04/27 00:48:59;;;;;;;8.60;4.53;;;3.00;99.90;;;;;;4975209;28;20670;-63
2023/04/27 00:51:27;;;;;;;8.70;4.63;;;3.00;99.90;;;;;;4986975;28;20485;-63
2023/04/27 00:53:53;;;;;;;8.15;4.60;;;2.90;99.90;;;;;;4979910;28;20038;-65
2023/04/27 00:56:19;;;;;;;8.93;4.95;;;2.90;99.90;;;;;;4981474;28;20404;-64
2023/04/27 00:58:48;;;;;;;7.15;4.38;;;2.90;99.90;;;;;;4980091;28;20049;-65
2023/04/27 01:01:13;;;;;;;7.97;4.35;;;2.90;99.90;;;;;;4991037;28;20046;-65
2023/04/27 01:03:39;;;;;;;7.57;4.55;;;2.90;99.90;;;;;;4977559;28;20049;-66
2023/04/27 01:06:05;;;;;;;7.70;4.40;;;2.90;99.90;;;;;;4983233;28;20283;-64
2023/04/27 01:08:30;;;;;;;8.65;4.65;;;2.80;99.90;;;;;;4981737;28;20042;-64
2023/04/27 01:10:56;;;;;;;10.50;5.28;;;2.80;99.90;;;;;;4980383;28;20041;-65
2023/04/27 01:13:22;;;;;;;7.90;4.70;;;2.80;99.90;;;;;;5011008;22;20381;-65
2023/04/27 01:15:47;;;;;;;8.55;4.80;;;2.80;99.90;;;;;;4984911;28;20066;-66
2023/04/27 01:18:13;;;;;;;9.02;4.80;;;2.80;99.90;;;;;;4980442;28;20045;-64
2023/04/27 01:20:39;;;;;;;7.82;4.78;;;2.80;99.90;;;;;;5001124;28;20079;-64
2023/04/27 01:23:05;;;;;;;9.13;5.10;;;2.80;99.90;;;;;;4979992;28;20042;-65
2023/04/27 01:25:30;;;;;;;10.95;5.40;;;2.70;99.90;;;;;;5011214;28;20038;-65
2023/04/27 01:27:56;;;;;;;8.88;4.45;;;2.70;99.90;;;;;;5000206;28;20522;-66
2023/04/27 01:30:21;;;;;;;9.27;4.75;;;2.70;99.90;;;;;;5006681;28;20038;-64
2023/04/27 01:32:48;;;;;;;10.15;4.95;;;2.60;99.90;;;;;;4999148;28;20068;-65
2023/04/27 01:35:14;;;;;;;8.93;4.85;;;2.60;99.90;;;;;;4975982;28;20053;-65
2023/04/27 01:37:40;;;;;;;11.15;4.57;;;2.60;99.90;;;;;;5011899;28;20038;-65
2023/04/27 01:40:12;;;;;;;8.13;4.55;;;2.50;99.90;;;;;;4984199;28;20136;-65
2023/04/27 01:42:38;;;;;;;10.32;5.10;;;2.50;99.90;;;;;;5005533;28;20040;-65
2023/04/27 01:45:04;;;;;;;8.32;4.88;;;2.40;99.90;;;;;;5001221;28;20034;-65
2023/04/27 01:47:29;;;;;;;10.27;5.35;;;2.40;99.90;;;;;;5002810;28;20056;-65
2023/04/27 01:49:55;;;;;;;14.15;6.50;;;2.40;99.90;;;;;;4980726;28;20042;-65
2023/04/27 01:52:20;;;;;;;11.98;6.53;;;2.40;99.90;;;;;;4999442;28;20069;-67
2023/04/27 01:54:46;;;;;;;11.95;6.25;;;2.30;99.90;;;;;;4988126;28;20038;-64
2023/04/27 01:57:13;;;;;;;10.93;5.72;;;2.30;99.90;;;;;;4981711;28;20045;-65
2023/04/27 01:59:38;;;;;;;11.98;6.45;;;2.30;99.90;;;;;;4990386;28;20046;-64
2023/04/27 02:02:04;;;;;;;11.45;6.50;;;2.30;99.90;;;;;;5007892;28;20088;-64
2023/04/27 02:04:29;;;;;;;13.85;6.75;;;2.30;99.90;;;;;;4988394;28;20451;-65
2023/04/27 02:06:55;;;;;;;10.70;6.70;;;2.30;99.90;;;;;;4999530;28;20034;-65
2023/04/27 02:09:21;;;;;;;11.02;6.57;;;2.30;99.90;;;;;;4993502;28;20057;-65
2023/04/27 02:11:47;;;;;;;10.88;6.97;;;2.20;99.90;;;;;;4969246;28;20030;-65
2023/04/27 02:14:13;;;;;;;14.98;7.45;;;2.30;99.90;;;;;;4986495;28;20046;-64
2023/04/27 02:16:38;;;;;;;12.32;7.10;;;2.20;99.90;;;;;;4985243;28;20038;-65
2023/04/27 02:19:04;;;;;;;11.32;7.18;;;2.20;99.90;;;;;;4990505;28;20046;-64
2023/04/27 02:21:29;;;;;;;12.60;7.15;;;2.20;99.90;;;;;;4994330;28;20060;-66
2023/04/27 02:23:55;;;;;;;14.65;7.47;;;2.20;99.90;;;;;;4982739;28;20041;-65
2023/04/27 02:26:22;;;;;;;11.70;7.05;;;2.20;99.90;;;;;;5007312;28;20053;-65
2023/04/27 02:28:48;;;;;;;12.48;6.88;;;2.20;99.90;;;;;;4990373;28;20038;-67
2023/04/27 02:31:15;;;;;;;15.20;7.40;;;2.20;99.90;;;;;;4992291;28;20042;-64
2023/04/27 02:34:14;;;;;;;13.82;7.50;;;2.20;99.90;;;;;;4995317;28;20376;-65
2023/04/27 02:36:40;;;;;;;14.48;7.72;;;2.30;99.90;;;;;;5005701;28;20089;-66
2023/04/27 02:39:05;;;;;;;15.00;7.85;;;2.20;99.90;;;;;;4984889;28;20037;-64
2023/04/27 02:41:31;;;;;;;13.05;7.10;;;2.20;99.90;;;;;;5011638;28;20036;-65
2023/04/27 02:43:57;;;;;;;14.13;7.75;;;2.10;99.90;;;;;;5006261;28;20030;-65
2023/04/27 02:46:22;;;;;;;12.15;7.10;;;2.10;99.90;;;;;;4990452;28;20038;-65
2023/04/27 02:49:09;;;;;;;12.18;7.18;;;2.10;99.90;;;;;;4978055;28;20038;-65
2023/04/27 02:51:35;;;;;;;12.50;6.65;;;2.10;99.90;;;;;;5005456;28;20034;-64
2023/04/27 02:54:00;;;;;;;14.10;7.28;;;2.10;99.90;;;;;;5018784;22;20133;-63
2023/04/27 02:56:26;;;;;;;11.23;6.88;;;2.10;99.90;;;;;;4973480;28;20045;-63
2023/04/27 02:58:52;;;;;;;10.80;6.65;;;2.10;99.90;;;;;;5010717;28;20459;-63
2023/04/27 03:01:17;;;;;;;13.05;7.03;;;2.10;99.90;;;;;;5009288;28;20450;-63
2023/04/27 03:03:46;;;;;;;14.80;7.80;;;2.10;99.90;;;;;;4991064;28;20113;-63
2023/04/27 03:06:13;;;;;;;11.48;6.97;;;2.10;99.90;;;;;;5010410;28;20045;-63
2023/04/27 03:08:39;;;;;;;12.18;7.45;;;2.10;99.90;;;;;;5011364;28;20169;-62
2023/04/27 03:11:04;;;;;;;12.55;7.30;;;2.10;99.90;;;;;;4996224;28;20120;-63
2023/04/27 03:13:30;;;;;;;10.43;6.65;;;2.10;99.90;;;;;;4997285;28;20042;-63
2023/04/27 03:15:56;;;;;;;11.50;6.90;;;2.10;99.90;;;;;;5010658;28;20184;-63
2023/04/27 03:18:21;;;;;;;12.80;7.43;;;2.10;99.90;;;;;;4992342;28;20049;-63
2023/04/27 03:20:47;;;;;;;13.68;7.57;;;2.10;99.90;;;;;;4993644;28;20046;-63
2023/04/27 03:23:13;;;;;;;11.73;6.72;;;2.00;99.90;;;;;;4993130;28;20044;-63
2023/04/27 03:25:38;;;;;;;11.70;6.28;;;2.10;99.90;;;;;;5003594;28;20039;-63
2023/04/27 03:28:04;;;;;;;12.27;6.50;;;2.00;99.90;;;;;;5023976;28;20067;-63
2023/04/27 03:30:29;;;;;;;13.80;7.05;;;2.00;99.90;;;;;;5013683;28;20038;-63
2023/04/27 03:32:55;;;;;;;9.52;6.07;;;1.90;99.90;;;;;;5014543;28;20181;-63
2023/04/27 03:35:20;;;;;;;13.60;6.60;;;1.90;99.90;;;;;;4993022;28;20046;-63
2023/04/27 03:37:46;;;;;;;12.52;7.10;;;2.00;99.90;;;;;;5010737;28;20042;-63
2023/04/27 03:40:13;;;;;;;11.00;6.50;;;2.00;99.90;;;;;;5010377;28;20029;-63
2023/04/27 03:42:38;;;;;;;10.90;5.93;;;1.90;99.90;;;;;;5003384;28;20489;-63
2023/04/27 03:45:05;;;;;;;10.65;6.18;;;1.90;99.90;;;;;;4989082;28;20060;-63
2023/04/27 03:47:31;;;;;;;10.20;5.78;;;1.90;99.90;;;;;;4982323;28;20504;-63
2023/04/27 03:49:56;;;;;;;11.10;6.55;;;1.90;99.90;;;;;;5003604;28;20058;-64
2023/04/27 03:52:22;;;;;;;10.73;6.32;;;1.80;99.90;;;;;;5010673;28;20523;-63
2023/04/27 03:54:47;;;;;;;12.43;6.30;;;1.80;99.90;;;;;;4994698;28;20081;-63
2023/04/27 03:57:13;;;;;;;11.25;6.07;;;1.80;99.90;;;;;;4996137;28;20403;-63
2023/04/27 03:59:38;;;;;;;11.27;6.00;;;1.80;99.90;;;;;;5010081;28;20038;-64
2023/04/27 04:02:04;;;;;;;14.80;7.13;;;1.70;99.90;;;;;;4990450;28;20045;-64
2023/04/27 04:04:30;;;;;;;12.50;6.25;;;1.70;99.90;;;;;;4988252;28;20053;-63
2023/04/27 04:06:55;;;;;;;14.15;7.20;;;1.70;99.90;;;;;;5008987;28;20030;-63
2023/04/27 04:09:21;;;;;;;12.63;6.70;;;1.70;99.90;;;;;;4991986;28;20042;-63
2023/04/27 04:11:47;;;;;;;11.77;6.63;;;1.60;99.90;;;;;;4987589;28;20046;-64
2023/04/27 04:14:12;;;;;;;12.73;6.45;;;1.60;99.90;;;;;;4990063;28;20049;-63
2023/04/27 04:16:38;;;;;;;15.13;7.10;;;1.60;99.90;;;;;;5016965;28;20069;-63
2023/04/27 04:19:03;;;;;;;11.52;6.45;;;1.60;99.90;;;;;;5005620;28;20050;-64
2023/04/27 04:21:30;;;;;;;12.07;7.20;;;1.60;99.90;;;;;;5009417;28;20037;-63
2023/04/27 04:23:56;;;;;;;14.40;7.25;;;1.60;99.90;;;;;;5009136;28;20068;-63
2023/04/27 04:26:22;;;;;;;16.60;7.68;;;1.60;99.90;;;;;;5003485;28;20083;-63
2023/04/27 04:28:48;;;;;;;15.00;6.72;;;1.60;99.90;;;;;;5008190;28;20042;-63
2023/04/27 04:31:16;;;;;;;11.98;6.85;;;1.60;99.90;;;;;;4991589;28;20068;-64
2023/04/27 04:33:41;;;;;;;10.52;6.57;;;1.60;99.90;;;;;;4988369;28;20476;-64
2023/04/27 04:36:07;;;;;;;11.93;6.82;;;1.60;99.90;;;;;;5014534;28;20042;-64
2023/04/27 04:38:33;;;;;;;13.52;6.65;;;1.60;99.90;;;;;;4989080;28;20042;-64
2023/04/27 04:40:58;;;;;;;11.50;6.70;;;1.60;99.90;;;;;;4992622;28;20484;-64
2023/04/27 04:43:24;;;;;;;15.35;7.18;;;1.70;99.90;;;;;;5009901;28;20038;-64
2023/04/27 04:45:50;;;;;;;13.00;7.43;;;1.70;99.90;;;;;;4988464;28;20044;-64
2023/04/27 04:48:16;;;;;;;15.07;8.10;;;1.70;99.90;;;;;;4995931;28;20402;-63
2023/04/27 04:50:42;;;;;;;12.52;7.65;;;1.70;99.90;;;;;;5001615;28;20046;-64
2023/04/27 04:53:08;;;;;;;14.88;7.78;;;1.70;99.90;;;;;;5005167;28;20042;-64
2023/04/27 04:55:33;;;;;;;14.00;7.07;;;1.80;99.90;;;;;;4983289;28;20062;-64
2023/04/27 04:57:59;;;;;;;11.70;6.75;;;1.70;99.90;;;;;;5005632;28;20030;-64
2023/04/27 05:00:25;;;;;;;12.40;7.10;;;1.80;99.90;;;;;;5002380;28;20038;-64
2023/04/27 05:02:51;;;;;;;12.25;6.85;;;1.80;99.90;;;;;;5006616;28;20030;-63
2023/04/27 05:05:16;;;;;;;11.68;6.63;;;1.70;99.90;;;;;;4986803;28;20081;-64
2023/04/27 05:07:42;;;;;;;14.20;7.60;;;1.80;99.90;;;;;;4978352;28;20069;-63
2023/04/27 05:10:08;;;;;;;10.95;6.65;;;1.70;99.90;;;;;;5010087;28;20033;-63
2023/04/27 05:12:33;;;;;;;13.23;7.00;;;1.70;99.90;;;;;;5003406;28;20091;-63
2023/04/27 05:14:59;;;;;;;11.90;6.65;;;1.70;99.90;;;;;;5009418;28;20092;-64
2023/04/27 05:17:25;;;;;;;11.82;6.63;;;1.70;99.90;;;;;;5006367;28;20084;-63
2023/04/27 05:19:51;;;;;;;12.30;6.93;;;1.70;99.90;;;;;;5012903;28;20030;-63
2023/04/27 05:22:16;;;;;;;14.43;6.75;;;1.70;99.90;;;;;;4995227;28;20049;-64
2023/04/27 05:24:42;;;;;;;12.43;7.28;;;1.70;99.90;;;;;;5007101;28;20437;-63
2023/04/27 05:27:07;;;;;;;11.25;7.13;;;1.70;99.90;;;;;;5012770;28;20042;-64
2023/04/27 05:29:33;;;;;;;11.52;7.20;;;1.80;99.90;;;;;;4993161;28;20046;-64
2023/04/27 05:31:59;;;;;;;12.60;7.15;;;1.80;99.90;;;;;;4993566;28;20044;-63
2023/04/27 05:34:24;;;;;;;13.05;6.80;;;1.80;99.90;;;;;;5001769;28;20050;-64
2023/04/27 05:36:50;;;;;;;13.48;7.03;;;1.90;99.90;;;;;;5011626;28;20049;-63
2023/04/27 05:39:15;;;;;;;12.60;7.07;;;1.90;99.90;;;;;;5011600;28;20034;-64
2023/04/27 05:41:41;;;;;;;11.77;7.18;;;1.90;99.90;;;;;;5012668;28;20089;-63
2023/04/27 05:44:07;;;;;;;16.23;7.07;;;1.90;99.90;;;;;;4988600;28;20042;-64
2023/04/27 05:46:33;;;;;;;15.57;7.32;;;2.00;99.90;;;;;;5007887;28;20084;-64
2023/04/27 05:48:58;;;;;;;13.50;7.53;;;2.00;99.90;;;;;;5012059;28;20496;-64
2023/04/27 05:51:24;;;;;;;13.95;7.68;;;2.00;99.90;;;;;;4985536;28;20037;-64
2023/04/27 05:53:54;;;;;;;14.63;7.68;;;2.10;99.90;;;;;;5011480;28;20507;-64
2023/04/27 05:56:19;;;;;;;14.20;7.43;;;2.20;99.90;;;;;;5007056;28;20054;-63
2023/04/27 05:58:46;;;;;;;12.52;7.22;;;2.20;99.90;;;;;;5005138;28;20507;-63
2023/04/27 06:01:11;;;;;;;15.23;8.00;;;2.30;99.90;;;;;;4988900;28;20042;-64
2023/04/27 06:03:37;;;;;;;17.33;8.73;;;2.30;99.90;;;;;;5011981;28;20519;-64
2023/04/27 06:06:03;;;;;;;18.30;8.75;;;2.40;99.90;;;;;;4994565;28;20042;-64
2023/04/27 06:08:29;;;;;;;15.65;8.35;;;2.50;99.90;;;;;;5012516;28;20041;-64
2023/04/27 06:10:55;;;;;;;17.00;8.45;;;2.50;99.90;;;;;;5012323;28;20113;-64
2023/04/27 06:13:21;;;;;;;16.70;8.85;;;2.60;99.90;;;;;;4995222;28;20058;-64
2023/04/27 06:15:46;;;;;;;18.45;8.52;;;2.70;99.90;;;;;;5011390;28;20046;-64
2023/04/27 06:18:13;;;;;;;14.70;8.05;;;2.80;99.90;;;;;;5012164;28;20050;-64
2023/04/27 06:20:38;;;;;;;15.10;8.63;;;2.80;99.90;;;;;;5015714;28;20404;-64
2023/04/27 06:23:06;;;;;;;16.05;7.88;;;2.90;99.90;;;;;;5004174;28;20046;-64
2023/04/27 06:25:32;;;;;;;17.05;7.93;;;2.90;99.90;;;;;;4990218;28;20034;-64
2023/04/27 06:27:57;;;;;;;16.08;7.47;;;3.00;99.90;;;;;;4989544;28;20112;-64
2023/04/27 06:30:23;;;;;;;14.73;7.40;;;3.10;99.90;;;;;;4993379;28;20044;-63
2023/04/27 06:32:50;;;;;;;13.38;7.38;;;3.10;99.90;;;;;;5003406;28;20042;-64
2023/04/27 06:35:16;;;;;;;13.15;7.13;;;3.20;99.90;;;;;;5010503;28;20037;-64
2023/04/27 06:37:42;;;;;;;13.70;7.38;;;3.30;99.90;;;;;;4994095;28;20046;-63
2023/04/27 06:40:08;;;;;;;13.02;7.32;;;3.40;99.90;;;;;;5008872;28;20048;-63
2023/04/27 06:42:34;;;;;;;15.75;7.60;;;3.50;99.90;;;;;;4988014;28;20113;-64
2023/04/27 06:45:00;;;;;;;15.70;7.13;;;3.60;99.90;;;;;;5011589;28;20126;-64
2023/04/27 06:47:26;;;;;;;14.93;6.88;;;3.60;99.90;;;;;;5011320;28;20045;-64
2023/04/27 06:49:51;;;;;;;13.35;6.78;;;3.70;99.90;;;;;;5011067;28;20121;-64
2023/04/27 06:52:17;;;;;;;15.23;6.60;;;3.80;99.90;;;;;;4990819;28;20128;-63
2023/04/27 06:54:43;;;;;;;12.30;6.82;;;3.90;99.90;;;;;;4991945;28;20037;-63
2023/04/27 06:57:08;;;;;;;17.85;6.82;;;4.00;99.90;;;;;;4992539;28;20508;-63
2023/04/27 06:59:34;;;;;;;13.65;6.93;;;4.10;99.90;;;;;;5004939;28;20428;-63
2023/04/27 07:02:00;;;;;;;13.98;7.68;;;4.20;99.90;;;;;;4995855;28;20038;-63
2023/04/27 07:04:26;;;;;;;14.68;7.47;;;4.30;99.90;;;;;;4996863;28;20089;-63
2023/04/27 07:06:51;;;;;;;15.18;7.03;;;4.40;99.90;;;;;;4991726;28;20538;-63
2023/04/27 07:09:17;;;;;;;17.02;6.75;;;4.50;99.90;;;;;;4999601;28;20034;-63
2023/04/27 07:11:42;;;;;;;12.15;6.90;;;4.70;99.90;;;;;;5014323;28;20041;-63
2023/04/27 07:14:08;;;;;;;14.00;6.13;;;4.80;99.90;;;;;;5025227;28;20033;-63
2023/04/27 07:16:33;;;;;;;10.18;6.05;;;4.90;99.90;;;;;;5010668;28;20099;-63
2023/04/27 07:18:59;;;;;;;13.77;6.53;;;5.00;99.90;;;;;;5006584;28;20052;-63
2023/04/27 07:21:25;;;;;;;10.65;5.25;;;5.10;99.90;;;;;;5017186;28;20065;-63
2023/04/27 07:23:51;;;;;;;10.65;5.43;;;5.20;99.90;;;;;;5009183;28;20034;-63
2023/04/27 07:26:16;;;;;;;8.43;4.82;;;5.30;99.90;;;;;;4992708;28;20049;-63
2023/04/27 07:28:43;;;;;;;11.43;5.03;;;5.40;99.90;;;;;;4994588;28;20463;-63
2023/04/27 07:31:09;;;;;;;7.63;4.25;;;5.40;99.90;;;;;;4973596;28;20385;-63
2023/04/27 07:33:36;;;;;;;9.60;3.83;;;5.60;99.90;;;;;;4987258;28;20045;-63
2023/04/27 07:36:02;;;;;;;7.20;3.83;;;5.60;99.90;;;;;;5010270;28;20042;-63
2023/04/27 07:38:29;;;;;;;9.30;3.58;;;5.70;99.90;;;;;;4984402;28;21259;-63
2023/04/27 07:40:57;;;;;;;9.60;3.80;;;5.70;99.90;;;;;;4991429;28;20065;-63
2023/04/27 07:43:24;;;;;;;9.95;4.18;;;5.80;99.90;;;;;;5010626;28;20084;-63
2023/04/27 07:45:50;;;;;;;10.65;4.13;;;5.90;99.90;;;;;;4991860;28;20104;-63
2023/04/27 07:48:16;;;;;;;7.53;3.42;;;6.00;99.90;;;;;;5005771;28;20638;-63
2023/04/27 07:50:41;;;;;;;6.80;3.85;;;6.10;99.90;;;;;;4992035;28;20073;-63
2023/04/27 07:53:07;;;;;;;6.97;3.70;;;6.20;99.90;;;;;;5010280;28;20129;-64
2023/04/27 07:55:33;;;;;;;7.53;4.03;;;6.30;99.90;;;;;;4993535;28;20030;-63
2023/04/27 07:57:58;;;;;;;7.70;3.83;;;6.40;99.90;;;;;;5007534;28;20056;-63
2023/04/27 08:00:25;;;;;;;11.25;4.43;;;6.40;99.90;;;;;;5001972;28;20073;-63
2023/04/27 08:02:53;;;;;;;7.10;3.70;;;6.50;99.90;;;;;;4990839;28;20038;-63
2023/04/27 08:05:18;;;;;;;7.38;3.75;;;6.60;99.90;;;;;;4986192;28;21834;-63
2023/04/27 08:07:44;;;;;;;9.10;3.22;;;6.70;99.90;;;;;;5000376;28;20053;-63
2023/04/27 08:10:10;;;;;;;7.50;2.97;;;6.70;99.90;;;;;;4987418;28;20034;-64
2023/04/27 08:12:35;;;;;;;9.82;3.28;;;6.70;99.90;;;;;;4989468;28;20033;-63
2023/04/27 08:15:01;;;;;;;6.45;3.38;;;6.80;99.90;;;;;;5001512;28;20558;-64
2023/04/27 08:17:27;;;;;;;9.18;3.75;;;6.80;99.90;;;;;;5004208;28;20041;-64
2023/04/27 08:19:52;;;;;;;7.07;3.40;;;6.80;99.90;;;;;;5005305;28;20523;-63
2023/04/27 08:22:18;;;;;;;7.43;3.03;;;6.90;99.90;;;;;;4985183;28;20048;-64
2023/04/27 08:24:44;;;;;;;6.30;3.30;;;7.00;99.90;;;;;;5011765;28;20041;-63
2023/04/27 08:27:10;;;;;;;7.35;3.05;;;7.20;99.90;;;;;;4992630;28;20046;-64
2023/04/27 08:29:35;;;;;;;5.35;3.50;;;7.30;99.90;;;;;;4992019;28;20060;-64
2023/04/27 08:32:03;;;;;;;6.47;3.40;;;7.50;99.90;;;;;;4988375;28;20046;-64
2023/04/27 08:34:28;;;;;;;6.47;2.85;;;7.70;99.90;;;;;;5006190;28;20127;-64
2023/04/27 08:36:55;;;;;;;8.48;3.30;;;7.80;99.90;;;;;;5006750;28;20492;-64
2023/04/27 08:39:22;;;;;;;7.80;2.78;;;8.10;99.90;;;;;;4991220;28;20058;-64
2023/04/27 08:41:47;;;;;;;6.03;2.90;;;8.30;99.90;;;;;;4975688;28;20125;-64
2023/04/27 08:44:13;;;;;;;6.43;3.05;;;8.50;99.90;;;;;;5009656;28;20463;-64
2023/04/27 08:46:39;;;;;;;6.05;3.00;;;8.70;99.90;;;;;;5006036;28;20041;-64
2023/04/27 08:49:06;;;;;;;6.30;3.25;;;8.90;99.90;;;;;;4991052;28;20547;-64
2023/04/27 08:51:32;;;;;;;5.95;2.72;;;9.10;99.90;;;;;;5009381;28;20042;-64
2023/04/27 08:53:58;;;;;;;8.82;2.95;;;9.30;99.90;;;;;;5013189;28;20048;-64
2023/04/27 08:56:26;;;;;;;4.68;2.78;;;9.40;99.90;;;;;;5013918;28;20132;-64
2023/04/27 08:58:53;;;;;;;7.35;2.88;;;9.60;99.90;;;;;;4995293;28;20128;-65
2023/04/27 09:01:20;;;;;;;6.35;2.72;;;9.80;99.90;;;;;;4995961;28;20504;-64
2023/04/27 09:03:46;;;;;;;6.03;2.38;;;10.10;99.90;;;;;;4993391;28;20050;-64
2023/04/27 09:06:13;;;;;;;6.93;3.05;;;10.20;99.90;;;;;;5014823;28;20084;-64
2023/04/27 09:08:49;;;;;;;5.40;2.80;;;10.40;99.90;;;;;;5011598;28;20033;-64
2023/04/27 09:11:31;;;;;;;7.07;2.60;;;10.50;99.90;;;;;;4990580;28;20045;-64
2023/04/27 09:13:58;;;;;;;4.35;2.75;;;10.60;99.90;;;;;;5014877;28;20037;-64
2023/04/27 09:16:26;;;;;;;6.00;3.00;;;10.70;99.90;;;;;;5003666;28;20525;-64
2023/04/27 09:18:52;;;;;;;4.82;2.50;;;10.90;99.90;;;;;;5011710;28;20049;-64
2023/04/27 09:21:36;;;;;;;7.95;3.10;;;11.00;99.90;;;;;;5013118;28;20034;-64
2023/04/27 09:24:12;;;;;;;5.35;2.88;;;11.20;99.90;;;;;;4987945;28;20071;-64
2023/04/27 09:26:38;;;;;;;5.32;2.97;;;11.30;99.90;;;;;;5010919;28;20058;-64
2023/04/27 09:29:04;;;;;;;7.80;2.88;;;11.40;99.90;;;;;;4995565;28;20042;-64
2023/04/27 09:31:33;;;;;;;9.82;2.80;;;11.50;99.90;;;;;;4988169;28;20117;-64
2023/04/27 09:33:59;;;;;;;5.50;2.72;;;11.60;99.90;;;;;;4982288;28;20050;-64
2023/04/27 09:36:25;;;;;;;5.40;3.03;;;11.80;99.90;;;;;;5012298;28;20042;-64
2023/04/27 09:38:52;;;;;;;6.82;3.05;;;11.80;99.90;;;;;;5012834;28;20084;-64
2023/04/27 09:41:20;;;;;;;6.00;3.20;;;11.80;99.50;;;;;;5012808;28;20053;-64
2023/04/27 09:43:46;;;;;;;5.65;3.00;;;11.90;99.40;;;;;;5006848;28;20034;-64
2023/04/27 09:46:15;;;;;;;6.95;3.25;;;12.00;99.10;;;;;;4992904;28;20034;-64
2023/04/27 09:48:41;;;;;;;6.28;3.25;;;12.00;97.20;;;;;;5007875;28;20037;-64
2023/04/27 09:51:07;;;;;;;4.20;2.97;;;12.20;97.40;;;;;;5017908;28;20041;-64
2023/04/27 09:53:44;;;;;;;8.98;3.30;;;12.20;97.40;;;;;;5013601;28;20467;-64
2023/04/27 09:56:27;;;;;;;4.55;2.95;;;12.30;96.60;;;;;;4992747;28;20058;-65
2023/04/27 09:59:10;;;;;;;;;;;12.30;96.20;;;;;;5012390;28;20049;-64
2023/04/27 10:01:56;;;;;;;6.63;3.10;;;12.40;95.90;;;;;;4995050;28;19956;-64
2023/04/27 10:04:36;;;;;;;7.18;3.20;;;12.40;95.70;;;;;;4993501;28;20045;-64
2023/04/27 10:07:13;;;;;;;6.32;2.80;;;12.50;96.30;;;;;;4988147;28;20046;-64
2023/04/27 10:09:52;;;;;;;7.13;3.03;;;12.50;96.50;;;;;;4994412;28;20030;-65
2023/04/27 10:12:33;;;;;;;6.28;3.03;;;12.50;94.80;;;;;;5010847;28;20049;-65
2023/04/27 10:15:10;;;;;;;5.30;2.92;;;12.40;95.20;;;;;;5005353;28;20053;-64
2023/04/27 10:17:35;;;;;;;5.10;3.10;;;12.40;96.40;;;;;;5009108;28;20025;-64
2023/04/27 10:20:06;;;;;;;6.93;3.65;;;12.40;96.10;;;;;;5011933;28;20042;-64
2023/04/27 10:22:42;;;;;;;7.80;3.63;;;12.40;95.80;;;;;;4994645;28;20360;-65
2023/04/27 10:25:18;;;;;;;8.18;3.63;;;12.60;96.00;;;;;;5010207;28;20117;-64
2023/04/27 10:27:51;;;;;;;5.63;3.75;;;12.60;95.80;;;;;;4992556;28;20369;-64
2023/04/27 10:30:18;;;;;;;6.38;3.42;;;12.60;96.30;;;;;;4994561;28;20057;-65
2023/04/27 10:32:55;;;;;;;5.60;3.55;;;12.60;96.10;;;;;;5003627;28;20046;-64
2023/04/27 10:35:22;;;;;;;8.98;3.45;;;12.70;95.00;;;;;;4993918;28;20037;-64
2023/04/27 10:37:47;;;;;;;7.72;3.45;;;12.70;94.80;;;;;;4994181;28;20542;-64
2023/04/27 10:40:16;;;;;;;7.13;3.70;;;12.70;94.40;;;;;;5010472;28;20046;-64
2023/04/27 10:42:43;;;;;;;6.80;3.28;;;12.60;95.20;;;;;;5011543;28;20041;-64
2023/04/27 10:45:10;;;;;;;6.75;3.05;;;12.60;94.30;;;;;;4993483;28;20187;-64
2023/04/27 10:47:41;;;;;;;7.40;3.78;;;12.70;95.00;;;;;;4991383;28;20038;-65
2023/04/27 10:50:12;;;;;;;9.70;4.45;;;12.80;93.80;;;;;;4986547;28;20048;-64
2023/04/27 10:52:45;;;;;;;6.45;3.70;;;12.80;93.90;;;;;;5010994;28;20042;-64
2023/04/27 10:55:20;;;;;;;6.63;4.38;;;12.90;93.80;;;;;;4986715;28;20041;-64
2023/04/27 10:57:54;;;;;;;5.82;4.15;;;12.90;93.40;;;;;;4992403;28;20038;-64
2023/04/27 11:00:22;;;;;;;6.53;3.90;;;12.90;93.50;;;;;;4988141;28;20130;-64
2023/04/27 11:02:48;;;;;;;7.60;3.80;;;13.00;94.00;;;;;;4993510;28;20076;-64
2023/04/27 11:05:24;;;;;;;6.82;3.72;;;13.20;94.60;;;;;;5016871;28;20080;-64
2023/04/27 11:07:50;;;;;;;7.20;3.60;;;13.30;94.00;;;;;;5013902;28;20381;-65
2023/04/27 11:10:17;;;;;;;7.63;3.70;;;13.50;95.10;;;;;;4976640;28;20042;-64
2023/04/27 11:12:44;;;;;;;5.95;4.10;;;13.60;94.00;;;;;;4993194;28;20522;-64
2023/04/27 11:15:10;;;;;;;7.50;3.97;;;13.70;93.10;;;;;;4992988;28;20048;-64
2023/04/27 11:17:36;;;;;;;9.68;3.88;;;13.70;93.20;;;;;;5011026;28;20141;-65
2023/04/27 11:20:04;;;;;;;7.63;3.92;;;13.90;93.30;;;;;;4989515;28;20078;-64
2023/04/27 11:22:29;;;;;;;11.98;3.90;;;13.90;91.60;;;;;;5007226;28;20453;-64
2023/04/27 11:24:55;;;;;;;8.30;3.70;;;14.00;91.90;;;;;;4999894;28;20136;-64
2023/04/27 11:27:22;;;;;;;6.65;4.25;;;14.00;91.50;;;;;;4993270;28;20034;-64
2023/04/27 11:29:48;;;;;;;7.07;4.20;;;14.00;91.20;;;;;;4989972;28;20042;-64
2023/04/27 11:32:32;;;;;;;6.40;3.83;;;14.20;91.40;;;;;;5010964;28;20044;-64
2023/04/27 11:34:57;;;;;;;9.32;3.88;;;14.20;90.60;;;;;;5004940;28;20113;-64
2023/04/27 11:37:25;;;;;;;8.32;3.75;;;14.20;91.10;;;;;;5009260;28;20189;-64
2023/04/27 11:39:53;;;;;;;6.38;3.70;;;14.30;91.60;;;;;;4991226;28;20077;-64
2023/04/27 11:42:30;;;;;;;7.32;4.03;;;14.30;91.90;;;;;;5005880;28;20548;-64
2023/04/27 11:44:57;;;;;;;7.20;4.03;;;14.30;90.50;;;;;;5006921;28;20509;-64
2023/04/27 11:47:26;;;;;;;8.10;4.15;;;14.30;90.50;;;;;;4994005;28;20120;-64
2023/04/27 11:49:57;;;;;;;8.18;4.15;;;14.30;89.00;;;;;;5018883;28;20034;-64
2023/04/27 11:52:37;;;;;;;5.85;3.80;;;14.20;88.60;;;;;;4986608;28;20034;-64
2023/04/27 11:55:04;;;;;;;7.90;4.10;;;14.20;88.90;;;;;;5003186;28;20377;-64
2023/04/27 11:57:32;;;;;;;7.93;4.30;;;14.20;88.90;;;;;;4992662;28;20216;-64
2023/04/27 12:00:00;;;;;;;7.63;4.07;;;14.10;86.10;;;;;;5016763;28;20520;-64
2023/04/27 12:02:27;;;;;;;7.82;4.10;;;14.10;87.20;;;;;;5010142;28;20037;-64
2023/04/27 12:04:53;;;;;;;9.90;3.70;;;14.20;89.10;;;;;;5010610;28;20167;-64
2023/04/27 12:07:19;;;;;;;7.55;3.90;;;14.40;90.30;;;;;;5008239;28;20495;-64
2023/04/27 12:09:44;;;;;;;6.68;3.60;;;14.60;90.20;;;;;;5010518;28;20048;-63
2023/04/27 12:12:11;;;;;;;5.75;3.78;;;14.80;90.00;;;;;;5010511;28;20037;-64
2023/04/27 12:14:37;;;;;;;6.93;3.75;;;15.00;89.30;;;;;;5015465;28;20045;-64
2023/04/27 12:17:03;;;;;;;7.40;3.88;;;15.00;86.50;;;;;;5010346;28;20045;-64
2023/04/27 12:19:32;;;;;;;6.85;3.97;;;14.90;84.80;;;;;;4996821;28;20033;-64
2023/04/27 12:21:58;;;;;;;7.75;4.07;;;14.80;82.10;;;;;;4991653;28;20038;-64
2023/04/27 12:24:24;;;;;;;7.93;3.90;;;14.60;81.80;;;;;;5010980;28;20073;-63
2023/04/27 12:26:50;;;;;;;6.80;3.90;;;14.60;81.30;;;;;;4998686;28;20484;-63
2023/04/27 12:29:16;;;;;;;6.90;3.42;;;14.50;81.00;;;;;;4995633;28;20451;-63
2023/04/27 12:31:42;;;;;;;5.63;3.60;;;14.50;82.30;;;;;;4993399;28;20033;-64
2023/04/27 12:34:08;;;;;;;5.28;3.30;;;14.60;84.00;;;;;;5007768;28;20037;-64
2023/04/27 12:36:33;;;;;;;7.38;3.67;;;14.80;85.50;;;;;;5011964;28;20272;-64
2023/04/27 12:39:12;;;;;;;7.10;3.70;;;15.00;86.70;;;;;;4996180;28;20125;-64
2023/04/27 12:41:38;;;;;;;7.35;3.78;;;15.30;86.80;;;;;;4996485;28;20041;-63
2023/04/27 12:44:03;;;;;;;5.30;3.83;;;15.40;85.80;;;;;;5013038;28;20052;-64
2023/04/27 12:46:29;;;;;;;7.93;4.25;;;15.50;85.10;;;;;;5010755;28;20048;-64
2023/04/27 12:48:55;;;;;;;5.63;3.50;;;15.50;82.10;;;;;;5008259;28;20072;-64